Time;durP1;ratioP1;P1;durP2;ratioP2;P2;SDS_P1;SDS_P2;PMS_P1;PMS_P2;Temp;Humidity;BMP_temperature;BMP_pressure;BME280_temperature;BME280_humidity;BME280_pressure;Samples;Min_cycle;Max_cycle;Signal;HPM_P1;HPM_P2
2023/07/30 00:02:05;;;;;;;11.80;5.20;;;;;;;;;;109905;1249;25381;-81
2023/07/30 00:04:32;;;;;;;9.10;5.90;;;;;;;;;;108363;1250;22550;-80
2023/07/30 00:06:58;;;;;;;7.90;4.60;;;;;;;;;;108357;1248;22671;-80
2023/07/30 00:09:24;;;;;;;7.50;4.30;;;;;;;;;;108317;1249;24252;-80
2023/07/30 00:11:51;;;;;;;5.50;4.50;;;;;;;;;;108349;1250;22601;-80
2023/07/30 00:14:18;;;;;;;9.40;5.30;;;;;;;;;;108336;1249;25149;-80
2023/07/30 00:16:44;;;;;;;7.70;5.50;;;;;;;;;;110514;1249;22373;-80
2023/07/30 00:19:11;;;;;;;8.70;5.00;;;;;;;;;;110989;1248;22874;-80
2023/07/30 00:21:37;;;;;;;9.40;5.10;;;;;;;;;;110942;1249;22359;-81
2023/07/30 00:24:04;;;;;;;6.80;5.40;;;;;;;;;;110382;1249;25657;-80
2023/07/30 00:26:30;;;;;;;9.80;5.30;;;;;;;;;;108339;1250;22536;-80
2023/07/30 00:28:57;;;;;;;7.90;5.80;;;;;;;;;;108362;1249;22636;-80
2023/07/30 00:31:23;;;;;;;8.10;5.10;;;;;;;;;;108385;1249;22662;-80
2023/07/30 00:33:49;;;;;;;5.60;4.90;;;;;;;;;;108352;1252;22652;-80
2023/07/30 00:36:16;;;;;;;10.40;5.20;;;;;;;;;;108331;1250;22760;-80
2023/07/30 00:38:42;;;;;;;7.80;5.50;;;;;;;;;;108318;1249;26487;-80
2023/07/30 00:41:08;;;;;;;6.50;5.10;;;;;;;;;;108286;1249;25326;-80
2023/07/30 00:43:35;;;;;;;8.50;5.60;;;;;;;;;;108255;1250;23830;-80
2023/07/30 00:46:02;;;;;;;7.20;4.70;;;;;;;;;;108231;1249;24363;-80
2023/07/30 00:48:28;;;;;;;12.10;5.70;;;;;;;;;;108215;1250;22646;-80
2023/07/30 00:50:55;;;;;;;11.80;4.80;;;;;;;;;;108242;1249;23223;-80
2023/07/30 00:53:21;;;;;;;9.80;5.80;;;;;;;;;;108284;1250;22567;-80
2023/07/30 00:55:48;;;;;;;13.00;5.20;;;;;;;;;;108276;1249;23352;-80
2023/07/30 00:58:15;;;;;;;7.80;5.30;;;;;;;;;;108241;1249;24457;-80
2023/07/30 01:00:41;;;;;;;7.00;5.40;;;;;;;;;;108258;1249;22595;-80
2023/07/30 01:03:08;;;;;;;5.90;4.70;;;;;;;;;;110724;1249;22351;-81
2023/07/30 01:05:35;;;;;;;12.80;4.80;;;;;;;;;;110746;1249;22198;-80
2023/07/30 01:08:01;;;;;;;8.30;4.80;;;;;;;;;;110791;1249;22319;-80
2023/07/30 01:10:28;;;;;;;9.50;6.00;;;;;;;;;;110790;1249;22488;-81
2023/07/30 01:12:54;;;;;;;7.70;4.70;;;;;;;;;;110845;1249;22511;-81
2023/07/30 01:15:21;;;;;;;12.30;4.90;;;;;;;;;;110781;1249;23053;-81
2023/07/30 01:17:47;;;;;;;11.90;5.60;;;;;;;;;;110081;1249;25433;-81
2023/07/30 01:20:14;;;;;;;13.20;7.20;;;;;;;;;;108229;1250;26622;-80
2023/07/30 01:22:40;;;;;;;9.00;5.40;;;;;;;;;;108275;1249;22624;-80
2023/07/30 01:25:06;;;;;;;13.30;5.00;;;;;;;;;;108233;1251;25465;-80
2023/07/30 01:27:38;;;;;;;9.50;6.00;;;;;;;;;;108260;1251;22682;-81
2023/07/30 01:30:13;;;;;;;12.40;5.90;;;;;;;;;;109260;1249;22534;-80
2023/07/30 01:32:39;;;;;;;11.90;7.70;;;;;;;;;;108309;1250;22650;-80
2023/07/30 01:35:06;;;;;;;10.00;4.90;;;;;;;;;;108299;1249;25690;-81
2023/07/30 01:37:33;;;;;;;9.10;5.20;;;;;;;;;;108231;1249;22525;-80
2023/07/30 01:40:00;;;;;;;5.80;4.70;;;;;;;;;;108257;1249;22646;-80
2023/07/30 01:42:29;;;;;;;10.60;4.90;;;;;;;;;;108435;1250;22542;-80
2023/07/30 01:44:56;;;;;;;12.40;5.90;;;;;;;;;;108337;1250;24378;-80
2023/07/30 01:47:22;;;;;;;6.20;4.70;;;;;;;;;;108496;1250;22519;-80
2023/07/30 01:49:49;;;;;;;6.40;4.20;;;;;;;;;;108424;1249;22533;-80
2023/07/30 01:52:15;;;;;;;8.90;4.70;;;;;;;;;;108304;1250;22825;-81
2023/07/30 01:54:42;;;;;;;7.10;4.00;;;;;;;;;;108374;1249;24949;-80
2023/07/30 01:57:08;;;;;;;8.80;5.00;;;;;;;;;;108365;1249;22690;-80
2023/07/30 01:59:35;;;;;;;5.80;4.60;;;;;;;;;;108426;1249;25514;-80
2023/07/30 02:02:01;;;;;;;9.80;5.60;;;;;;;;;;108327;1250;22543;-80
2023/07/30 02:04:28;;;;;;;7.90;5.00;;;;;;;;;;108323;1249;22593;-80
2023/07/30 02:06:54;;;;;;;6.20;4.90;;;;;;;;;;108320;1249;23911;-81
2023/07/30 02:09:21;;;;;;;6.80;4.20;;;;;;;;;;108315;1249;22515;-81
2023/07/30 02:11:48;;;;;;;7.10;4.50;;;;;;;;;;108403;1249;22543;-81
2023/07/30 02:14:14;;;;;;;7.40;4.60;;;;;;;;;;108294;1249;22523;-81
2023/07/30 02:16:40;;;;;;;6.70;3.90;;;;;;;;;;108297;1249;23142;-81
2023/07/30 02:19:07;;;;;;;6.80;4.40;;;;;;;;;;108380;1250;24238;-81
2023/07/30 02:21:36;;;;;;;8.10;4.20;;;;;;;;;;108308;1249;22536;-81
2023/07/30 02:24:03;;;;;;;8.40;4.20;;;;;;;;;;108381;1249;22665;-80
2023/07/30 02:26:29;;;;;;;5.80;4.30;;;;;;;;;;108349;1250;22559;-81
2023/07/30 02:28:58;;;;;;;6.60;4.30;;;;;;;;;;108364;1250;22647;-81
2023/07/30 02:31:25;;;;;;;5.70;4.60;;;;;;;;;;108317;1249;22528;-81
2023/07/30 02:33:51;;;;;;;6.00;4.10;;;;;;;;;;108274;1250;25483;-80
2023/07/30 02:36:17;;;;;;;6.90;4.00;;;;;;;;;;108302;1249;25476;-80
2023/07/30 02:38:44;;;;;;;7.10;4.10;;;;;;;;;;108366;1250;22640;-81
2023/07/30 02:41:10;;;;;;;8.70;4.60;;;;;;;;;;108399;1249;22619;-80
2023/07/30 02:43:37;;;;;;;5.70;3.60;;;;;;;;;;108259;1250;22725;-81
2023/07/30 02:46:03;;;;;;;7.40;4.20;;;;;;;;;;108259;1250;22653;-80
2023/07/30 02:48:29;;;;;;;8.40;4.00;;;;;;;;;;108298;1250;22655;-80
2023/07/30 02:50:56;;;;;;;7.20;4.40;;;;;;;;;;108264;1249;22763;-80
2023/07/30 02:53:22;;;;;;;8.10;4.40;;;;;;;;;;108350;1253;25348;-80
2023/07/30 02:55:49;;;;;;;5.00;3.60;;;;;;;;;;108273;1250;24458;-81
2023/07/30 02:58:15;;;;;;;11.10;7.30;;;;;;;;;;108230;1254;22546;-81
2023/07/30 03:00:42;;;;;;;9.50;6.00;;;;;;;;;;108312;1249;23396;-80
2023/07/30 03:03:08;;;;;;;15.20;7.90;;;;;;;;;;110589;1250;22327;-81
2023/07/30 03:05:35;;;;;;;9.50;6.50;;;;;;;;;;108948;1249;22774;-80
2023/07/30 03:08:01;;;;;;;9.50;5.00;;;;;;;;;;108251;1250;22562;-80
2023/07/30 03:10:27;;;;;;;9.70;5.00;;;;;;;;;;108233;1250;22683;-80
2023/07/30 03:12:54;;;;;;;18.30;8.70;;;;;;;;;;108237;1250;22670;-80
2023/07/30 03:15:20;;;;;;;10.00;6.60;;;;;;;;;;108233;1250;24230;-81
2023/07/30 03:17:47;;;;;;;9.20;4.50;;;;;;;;;;108229;1249;25739;-80
2023/07/30 03:20:13;;;;;;;7.90;4.60;;;;;;;;;;108226;1249;24222;-80
2023/07/30 03:22:39;;;;;;;10.00;5.60;;;;;;;;;;108274;1251;22552;-80
2023/07/30 03:25:06;;;;;;;6.60;4.60;;;;;;;;;;108264;1250;22652;-81
2023/07/30 03:27:32;;;;;;;7.00;4.00;;;;;;;;;;108231;1249;22572;-81
2023/07/30 03:29:59;;;;;;;6.00;4.70;;;;;;;;;;108249;1249;22669;-81
2023/07/30 03:32:25;;;;;;;8.70;4.90;;;;;;;;;;108282;1250;22672;-80
2023/07/30 03:34:52;;;;;;;8.30;4.20;;;;;;;;;;108286;1249;22601;-81
2023/07/30 03:37:18;;;;;;;8.40;5.00;;;;;;;;;;108246;1249;22536;-80
2023/07/30 03:39:45;;;;;;;11.20;4.40;;;;;;;;;;108299;1250;23206;-81
2023/07/30 03:42:11;;;;;;;8.10;5.20;;;;;;;;;;108299;1250;22533;-80
2023/07/30 03:44:38;;;;;;;9.70;6.60;;;;;;;;;;108349;1249;22561;-80
2023/07/30 03:47:04;;;;;;;9.00;4.40;;;;;;;;;;108374;1250;22608;-81
2023/07/30 03:49:30;;;;;;;9.20;3.90;;;;;;;;;;108267;1249;25416;-80
2023/07/30 03:51:57;;;;;;;7.00;4.10;;;;;;;;;;108431;1250;22520;-80
2023/07/30 03:54:23;;;;;;;8.40;4.20;;;;;;;;;;108223;1252;22711;-80
2023/07/30 03:56:49;;;;;;;9.50;4.10;;;;;;;;;;108242;1251;22682;-80
2023/07/30 03:59:16;;;;;;;6.60;4.40;;;;;;;;;;108147;1251;22675;-80
2023/07/30 04:01:42;;;;;;;3.80;3.30;;;;;;;;;;108215;1252;22654;-80
2023/07/30 04:04:09;;;;;;;7.60;3.20;;;;;;;;;;108149;1250;25402;-80
2023/07/30 04:06:35;;;;;;;6.90;4.00;;;;;;;;;;108211;1251;23709;-80
2023/07/30 04:09:02;;;;;;;6.00;3.60;;;;;;;;;;108158;1251;23221;-79
2023/07/30 04:11:28;;;;;;;7.50;4.30;;;;;;;;;;108178;1254;22522;-80
2023/07/30 04:13:55;;;;;;;6.10;4.00;;;;;;;;;;108198;1251;22533;-80
2023/07/30 04:16:21;;;;;;;8.00;4.50;;;;;;;;;;108179;1251;24235;-80
2023/07/30 04:18:48;;;;;;;5.70;4.80;;;;;;;;;;108225;1251;22630;-80
2023/07/30 04:21:15;;;;;;;7.60;5.20;;;;;;;;;;108134;1251;25431;-80
2023/07/30 04:23:41;;;;;;;6.50;4.20;;;;;;;;;;108116;1251;22521;-80
2023/07/30 04:26:08;;;;;;;5.10;4.30;;;;;;;;;;108211;1254;22517;-80
2023/07/30 04:28:34;;;;;;;5.70;3.80;;;;;;;;;;108234;1252;23175;-80
2023/07/30 04:31:00;;;;;;;5.20;3.70;;;;;;;;;;108164;1251;24249;-80
2023/07/30 04:33:27;;;;;;;5.80;4.20;;;;;;;;;;108205;1251;25197;-80
2023/07/30 04:35:54;;;;;;;7.40;5.00;;;;;;;;;;108169;1251;22615;-80
2023/07/30 04:38:20;;;;;;;7.60;6.00;;;;;;;;;;108176;1251;22535;-80
2023/07/30 04:40:47;;;;;;;12.90;8.50;;;;;;;;;;108218;1252;23139;-80
2023/07/30 04:43:14;;;;;;;11.90;8.60;;;;;;;;;;108223;1253;22518;-80
2023/07/30 04:45:40;;;;;;;13.10;5.90;;;;;;;;;;108242;1250;22573;-80
2023/07/30 04:48:07;;;;;;;11.60;6.00;;;;;;;;;;108235;1250;22582;-80
2023/07/30 04:50:33;;;;;;;12.40;5.70;;;;;;;;;;108294;1250;25391;-80
2023/07/30 04:52:59;;;;;;;9.90;6.00;;;;;;;;;;108244;1250;22534;-80
2023/07/30 04:55:26;;;;;;;5.30;3.80;;;;;;;;;;108215;1249;22532;-80
2023/07/30 04:57:52;;;;;;;7.80;3.50;;;;;;;;;;108152;1249;22514;-80
2023/07/30 05:00:19;;;;;;;8.50;4.60;;;;;;;;;;108163;1250;22537;-80
2023/07/30 05:02:45;;;;;;;6.90;4.80;;;;;;;;;;108260;1250;24239;-80
2023/07/30 05:05:12;;;;;;;7.60;4.10;;;;;;;;;;108193;1249;22635;-80
2023/07/30 05:07:39;;;;;;;11.00;4.20;;;;;;;;;;108232;1249;22533;-80
2023/07/30 05:10:07;;;;;;;4.70;3.90;;;;;;;;;;108200;1250;22570;-80
2023/07/30 05:12:34;;;;;;;8.60;4.20;;;;;;;;;;108241;1249;22641;-80
2023/07/30 05:15:01;;;;;;;5.60;3.40;;;;;;;;;;108287;1249;22573;-80
2023/07/30 05:17:28;;;;;;;4.70;3.80;;;;;;;;;;108244;1250;22598;-80
2023/07/30 05:19:54;;;;;;;6.50;3.60;;;;;;;;;;108222;1249;24391;-80
2023/07/30 05:22:20;;;;;;;6.10;3.90;;;;;;;;;;108251;1249;22647;-80
2023/07/30 05:24:47;;;;;;;5.10;3.70;;;;;;;;;;108194;1255;22553;-80
2023/07/30 05:27:13;;;;;;;5.50;3.70;;;;;;;;;;108256;1249;22651;-81
2023/07/30 05:29:40;;;;;;;4.70;3.60;;;;;;;;;;108472;1249;25465;-80
2023/07/30 05:32:06;;;;;;;4.50;3.10;;;;;;;;;;108195;1249;24372;-80
2023/07/30 05:34:33;;;;;;;5.10;3.10;;;;;;;;;;108182;1249;22523;-80
2023/07/30 05:36:59;;;;;;;7.70;6.60;;;;;;;;;;108190;1249;22540;-80
2023/07/30 05:39:26;;;;;;;8.70;6.20;;;;;;;;;;108250;1253;22569;-81
2023/07/30 05:41:52;;;;;;;4.80;4.00;;;;;;;;;;108300;1250;24258;-80
2023/07/30 05:44:18;;;;;;;6.20;4.20;;;;;;;;;;108282;1250;22530;-80
2023/07/30 05:46:45;;;;;;;4.80;3.50;;;;;;;;;;108268;1250;24086;-80
2023/07/30 05:49:11;;;;;;;8.60;4.50;;;;;;;;;;108266;1250;22537;-80
2023/07/30 05:51:38;;;;;;;5.90;4.60;;;;;;;;;;108235;1249;22652;-80
2023/07/30 05:54:05;;;;;;;8.30;6.80;;;;;;;;;;108390;1249;22547;-80
2023/07/30 05:56:31;;;;;;;9.50;6.40;;;;;;;;;;108767;1250;23022;-80
2023/07/30 05:58:57;;;;;;;6.60;4.50;;;;;;;;;;108255;1250;22533;-80
2023/07/30 06:01:24;;;;;;;7.60;4.40;;;;;;;;;;108241;1250;22641;-80
2023/07/30 06:03:50;;;;;;;5.30;4.60;;;;;;;;;;108288;1250;22636;-80
2023/07/30 06:06:17;;;;;;;8.30;4.40;;;;;;;;;;108236;1250;22608;-80
2023/07/30 06:08:43;;;;;;;4.20;3.00;;;;;;;;;;108241;1250;22538;-80
2023/07/30 06:11:10;;;;;;;6.80;3.70;;;;;;;;;;108451;1249;24079;-80
2023/07/30 06:13:37;;;;;;;4.40;2.70;;;;;;;;;;108253;1252;22566;-80
2023/07/30 06:16:03;;;;;;;7.00;3.00;;;;;;;;;;108258;1249;22649;-80
2023/07/30 06:18:30;;;;;;;4.90;2.60;;;;;;;;;;108211;1249;22584;-80
2023/07/30 06:20:56;;;;;;;4.20;2.60;;;;;;;;;;108196;1249;22587;-80
2023/07/30 06:23:22;;;;;;;11.20;2.80;;;;;;;;;;108161;1249;22663;-80
2023/07/30 06:25:49;;;;;;;3.00;2.20;;;;;;;;;;108232;1253;22800;-80
2023/07/30 06:28:15;;;;;;;5.50;2.20;;;;;;;;;;108103;1249;22639;-81
2023/07/30 06:30:42;;;;;;;5.50;2.70;;;;;;;;;;108144;1249;25392;-80
2023/07/30 06:33:08;;;;;;;4.20;1.90;;;;;;;;;;108174;1249;22550;-80
2023/07/30 06:35:34;;;;;;;3.60;2.00;;;;;;;;;;108466;1249;36160;-80
2023/07/30 06:38:01;;;;;;;5.40;2.50;;;;;;;;;;107799;1252;61201;-80
2023/07/30 06:40:27;;;;;;;4.70;2.00;;;;;;;;;;107623;1254;59231;-80
2023/07/30 06:42:54;;;;;;;3.00;1.70;;;;;;;;;;107350;1254;61196;-80
2023/07/30 06:45:20;;;;;;;3.90;2.30;;;;;;;;;;107339;1250;61344;-80
2023/07/30 06:47:47;;;;;;;2.00;1.70;;;;;;;;;;107279;1249;61229;-80
2023/07/30 06:50:13;;;;;;;3.20;1.50;;;;;;;;;;107290;1255;61215;-80
2023/07/30 06:52:39;;;;;;;2.80;1.60;;;;;;;;;;107345;1249;61255;-80
2023/07/30 06:55:06;;;;;;;4.60;1.70;;;;;;;;;;107341;1254;61309;-80
2023/07/30 06:57:33;;;;;;;4.60;2.10;;;;;;;;;;107348;1251;61364;-80
2023/07/30 07:00:00;;;;;;;3.00;1.70;;;;;;;;;;107198;1250;61455;-81
2023/07/30 07:02:26;;;;;;;3.40;1.60;;;;;;;;;;107297;1256;61144;-81
2023/07/30 07:04:54;;;;;;;2.80;1.40;;;;;;;;;;107325;1249;61164;-81
2023/07/30 07:07:20;;;;;;;3.70;1.40;;;;;;;;;;107344;1254;61112;-80
2023/07/30 07:09:47;;;;;;;5.90;2.10;;;;;;;;;;107241;1255;155411;-80
2023/07/30 07:12:13;;;;;;;4.90;2.30;;;;;;;;;;107349;1255;61267;-80
2023/07/30 07:14:42;;;;;;;8.10;3.10;;;;;;;;;;107392;1250;61295;-80
2023/07/30 07:17:08;;;;;;;2.40;1.50;;;;;;;;;;107453;1249;61141;-80
2023/07/30 07:19:36;;;;;;;1.70;1.20;;;;;;;;;;107329;1249;61237;-81
2023/07/30 07:22:05;;;;;;;5.40;3.30;;;;;;;;;;107334;1249;61328;-81
2023/07/30 07:24:32;;;;;;;3.50;2.30;;;;;;;;;;107476;1249;61222;-81
2023/07/30 07:26:58;;;;;;;2.20;1.70;;;;;;;;;;107345;1251;61248;-80
2023/07/30 07:29:25;;;;;;;2.90;1.60;;;;;;;;;;107365;1250;61144;-80
2023/07/30 07:31:51;;;;;;;3.80;1.70;;;;;;;;;;107316;1250;61318;-80
2023/07/30 07:34:18;;;;;;;4.60;1.80;;;;;;;;;;107371;1250;61279;-81
2023/07/30 07:36:44;;;;;;;3.40;1.10;;;;;;;;;;107353;1253;61226;-81
2023/07/30 07:39:11;;;;;;;2.20;1.20;;;;;;;;;;107272;1250;61134;-81
2023/07/30 07:41:37;;;;;;;4.00;1.30;;;;;;;;;;107314;1250;61202;-81
2023/07/30 07:44:04;;;;;;;5.50;1.60;;;;;;;;;;107295;1255;61229;-81
2023/07/30 07:46:30;;;;;;;1.90;1.10;;;;;;;;;;107350;1249;61392;-82
2023/07/30 07:48:57;;;;;;;3.50;1.30;;;;;;;;;;107353;1250;61360;-82
2023/07/30 07:51:23;;;;;;;2.70;1.00;;;;;;;;;;107409;1250;61342;-82
2023/07/30 07:53:49;;;;;;;8.10;3.90;;;;;;;;;;107406;1249;61319;-82
2023/07/30 07:56:16;;;;;;;3.40;1.90;;;;;;;;;;107306;1249;61324;-81
2023/07/30 07:58:43;;;;;;;2.60;1.40;;;;;;;;;;107370;1254;61208;-82
2023/07/30 08:01:09;;;;;;;2.10;1.30;;;;;;;;;;107414;1254;61197;-81
2023/07/30 08:03:35;;;;;;;5.80;1.20;;;;;;;;;;107404;1250;61328;-81
2023/07/30 08:06:02;;;;;;;4.60;1.80;;;;;;;;;;107344;1255;61254;-81
2023/07/30 08:08:28;;;;;;;2.10;1.00;;;;;;;;;;107485;1249;61224;-80
2023/07/30 08:10:55;;;;;;;2.90;1.50;;;;;;;;;;107608;1250;61313;-80
2023/07/30 08:13:21;;;;;;;3.70;1.50;;;;;;;;;;107487;1250;61444;-80
2023/07/30 08:15:48;;;;;;;2.00;1.20;;;;;;;;;;107435;1250;61320;-81
2023/07/30 08:18:14;;;;;;;1.40;1.10;;;;;;;;;;107489;1250;61219;-80
2023/07/30 08:20:40;;;;;;;2.10;1.30;;;;;;;;;;107496;1254;61341;-81
2023/07/30 08:23:07;;;;;;;3.30;1.40;;;;;;;;;;107474;1250;61104;-80
2023/07/30 08:25:33;;;;;;;1.70;1.30;;;;;;;;;;107453;1249;61244;-81
2023/07/30 08:28:00;;;;;;;1.90;1.20;;;;;;;;;;107398;1249;62825;-80
2023/07/30 08:30:26;;;;;;;3.20;1.40;;;;;;;;;;107466;1249;61336;-81
2023/07/30 08:32:53;;;;;;;1.90;1.50;;;;;;;;;;107371;1253;61233;-81
2023/07/30 08:35:19;;;;;;;1.40;1.00;;;;;;;;;;107429;1251;61278;-82
2023/07/30 08:37:45;;;;;;;3.70;1.20;;;;;;;;;;107405;1249;61355;-82
2023/07/30 08:40:12;;;;;;;1.50;0.90;;;;;;;;;;107362;1250;61353;-82
2023/07/30 08:42:38;;;;;;;2.40;1.00;;;;;;;;;;107403;1249;59161;-81
2023/07/30 08:45:05;;;;;;;2.30;1.50;;;;;;;;;;107430;1252;61105;-82
2023/07/30 08:47:32;;;;;;;1.90;1.20;;;;;;;;;;107368;1250;61264;-81
2023/07/30 08:49:58;;;;;;;1.70;1.20;;;;;;;;;;107430;1250;61356;-81
2023/07/30 08:52:25;;;;;;;4.10;1.50;;;;;;;;;;107430;1251;61845;-81
2023/07/30 08:54:51;;;;;;;2.10;1.30;;;;;;;;;;107481;1250;61366;-82
2023/07/30 08:57:18;;;;;;;1.90;1.10;;;;;;;;;;107470;1250;61344;-81
2023/07/30 08:59:47;;;;;;;2.40;1.10;;;;;;;;;;107485;1251;61256;-82
2023/07/30 09:02:17;;;;;;;1.60;1.30;;;;;;;;;;107437;1250;61248;-81
2023/07/30 09:04:44;;;;;;;2.90;1.60;;;;;;;;;;107455;1249;61339;-81
2023/07/30 09:07:11;;;;;;;1.90;1.40;;;;;;;;;;107596;1250;61304;-82
2023/07/30 09:09:37;;;;;;;1.10;1.00;;;;;;;;;;107456;1250;61454;-82
2023/07/30 09:12:04;;;;;;;2.50;1.30;;;;;;;;;;107460;1250;61335;-82
2023/07/30 09:14:30;;;;;;;2.00;1.20;;;;;;;;;;107610;1253;61374;-82
2023/07/30 09:16:58;;;;;;;1.70;1.20;;;;;;;;;;107400;1249;61316;-82
2023/07/30 09:19:24;;;;;;;2.10;1.30;;;;;;;;;;107499;1249;61216;-82
2023/07/30 09:21:51;;;;;;;1.90;1.40;;;;;;;;;;107382;1251;61332;-82
2023/07/30 09:24:20;;;;;;;3.20;1.40;;;;;;;;;;107367;1250;61449;-82
2023/07/30 09:26:47;;;;;;;3.00;1.60;;;;;;;;;;107434;1250;61384;-82
2023/07/30 09:29:13;;;;;;;1.70;1.10;;;;;;;;;;107548;1250;61228;-82
2023/07/30 09:31:46;;;;;;;1.60;1.30;;;;;;;;;;107357;1249;61348;-82
2023/07/30 09:34:17;;;;;;;2.00;1.50;;;;;;;;;;107358;1254;61141;-82
2023/07/30 09:36:44;;;;;;;1.40;1.10;;;;;;;;;;107356;1249;61336;-82
2023/07/30 09:39:17;;;;;;;2.50;1.40;;;;;;;;;;107344;1255;61224;-82
2023/07/30 09:41:45;;;;;;;3.10;1.30;;;;;;;;;;107425;1249;61250;-82
2023/07/30 09:44:12;;;;;;;2.10;1.30;;;;;;;;;;107380;1250;61200;-82
2023/07/30 09:46:45;;;;;;;1.90;1.30;;;;;;;;;;107435;1250;61569;-82
2023/07/30 09:49:11;;;;;;;2.20;1.60;;;;;;;;;;107532;1250;61257;-82
2023/07/30 09:51:39;;;;;;;1.70;1.00;;;;;;;;;;107404;1254;61113;-82
2023/07/30 09:54:06;;;;;;;5.50;2.10;;;;;;;;;;107335;1250;61277;-82
2023/07/30 09:56:33;;;;;;;4.20;1.30;;;;;;;;;;107435;1253;61120;-82
2023/07/30 09:58:59;;;;;;;2.10;1.40;;;;;;;;;;107429;1250;61408;-82
2023/07/30 10:01:26;;;;;;;1.80;1.30;;;;;;;;;;107382;1250;61221;-82
2023/07/30 10:03:53;;;;;;;2.20;1.30;;;;;;;;;;107341;1250;61355;-82
2023/07/30 10:06:19;;;;;;;9.20;1.40;;;;;;;;;;107346;1250;61102;-82
2023/07/30 10:08:46;;;;;;;2.20;1.40;;;;;;;;;;107385;1250;61239;-82
2023/07/30 10:11:13;;;;;;;1.80;1.30;;;;;;;;;;107411;1256;61215;-82
2023/07/30 10:13:39;;;;;;;3.80;1.70;;;;;;;;;;108268;1250;61231;-82
2023/07/30 10:16:10;;;;;;;2.00;1.30;;;;;;;;;;107486;1250;60883;-82
2023/07/30 10:18:40;;;;;;;2.00;1.30;;;;;;;;;;107388;1249;61156;-83
2023/07/30 10:21:10;;;;;;;2.80;1.80;;;;;;;;;;107293;1250;61244;-81
2023/07/30 10:23:46;;;;;;;5.10;3.00;;;;;;;;;;107326;1250;59765;-82
2023/07/30 10:26:13;;;;;;;3.00;1.90;;;;;;;;;;107424;1250;61227;-82
2023/07/30 10:28:43;;;;;;;4.40;1.90;;;;;;;;;;107359;1251;61358;-81
2023/07/30 10:31:11;;;;;;;2.70;1.90;;;;;;;;;;107367;1254;61156;-81
2023/07/30 10:33:49;;;;;;;4.10;1.30;;;;;;;;;;107410;1253;61301;-81
2023/07/30 10:36:17;;;;;;;2.50;1.30;;;;;;;;;;107394;1250;61137;-81
2023/07/30 10:38:43;;;;;;;3.70;1.20;;;;;;;;;;107482;1250;61213;-81
2023/07/30 10:41:12;;;;;;;2.90;1.60;;;;;;;;;;107950;1252;62769;-81
2023/07/30 10:43:51;;;;;;;2.90;1.70;;;;;;;;;;107948;1250;61310;-81
2023/07/30 10:46:17;;;;;;;3.40;2.00;;;;;;;;;;107441;1252;61329;-81
2023/07/30 10:48:46;;;;;;;3.40;1.80;;;;;;;;;;107459;1253;61142;-81
2023/07/30 10:51:17;;;;;;;3.20;2.30;;;;;;;;;;107406;1251;59901;-81
2023/07/30 10:53:46;;;;;;;2.40;1.40;;;;;;;;;;107599;1250;61245;-81
2023/07/30 10:56:13;;;;;;;2.40;1.60;;;;;;;;;;107407;1252;61284;-81
2023/07/30 10:58:39;;;;;;;4.00;1.50;;;;;;;;;;107525;1252;61319;-81
2023/07/30 11:01:06;;;;;;;3.70;1.70;;;;;;;;;;107704;1253;61247;-81
2023/07/30 11:03:33;;;;;;;2.10;1.60;;;;;;;;;;107483;1253;63570;-81
2023/07/30 11:05:59;;;;;;;2.30;1.40;;;;;;;;;;107636;1252;62366;-81
2023/07/30 11:08:33;;;;;;;3.60;1.30;;;;;;;;;;107530;1249;61321;-81
2023/07/30 11:11:00;;;;;;;1.70;1.30;;;;;;;;;;107603;1253;61331;-81
2023/07/30 11:13:27;;;;;;;4.60;2.10;;;;;;;;;;107449;1252;61311;-82
2023/07/30 11:15:53;;;;;;;3.70;1.90;;;;;;;;;;107533;1250;60125;-81
2023/07/30 11:18:20;;;;;;;2.50;1.40;;;;;;;;;;107421;1252;61186;-81
2023/07/30 11:20:46;;;;;;;3.40;1.30;;;;;;;;;;107549;1252;61147;-81
2023/07/30 11:23:18;;;;;;;3.50;1.30;;;;;;;;;;107720;1252;61356;-82
2023/07/30 11:25:45;;;;;;;2.30;1.50;;;;;;;;;;107491;1253;61136;-81
2023/07/30 11:28:12;;;;;;;2.20;1.60;;;;;;;;;;107659;1251;61207;-82
2023/07/30 11:30:38;;;;;;;2.30;1.60;;;;;;;;;;107454;1254;61327;-81
2023/07/30 11:33:05;;;;;;;2.00;1.30;;;;;;;;;;107579;1249;61148;-81
2023/07/30 11:35:31;;;;;;;3.20;1.60;;;;;;;;;;107428;1254;61230;-81
2023/07/30 11:37:58;;;;;;;3.30;1.50;;;;;;;;;;107340;1253;61222;-81
2023/07/30 11:40:24;;;;;;;2.60;1.60;;;;;;;;;;107347;1256;61225;-82
2023/07/30 11:42:51;;;;;;;2.10;1.60;;;;;;;;;;107427;1254;61189;-81
2023/07/30 11:45:21;;;;;;;2.40;1.70;;;;;;;;;;107433;1254;61279;-81
2023/07/30 11:47:48;;;;;;;2.80;1.60;;;;;;;;;;108084;1251;61227;-82
2023/07/30 11:50:14;;;;;;;3.10;1.70;;;;;;;;;;107416;1251;61243;-81
2023/07/30 11:52:54;;;;;;;2.10;1.40;;;;;;;;;;107429;1254;61227;-81
2023/07/30 11:55:21;;;;;;;2.20;1.70;;;;;;;;;;108664;1250;61243;-81
2023/07/30 11:57:47;;;;;;;3.30;1.60;;;;;;;;;;107408;1254;61329;-81
2023/07/30 12:00:14;;;;;;;3.40;2.00;;;;;;;;;;107424;1253;61195;-82
2023/07/30 12:02:40;;;;;;;3.00;1.30;;;;;;;;;;107433;1251;61366;-81
2023/07/30 12:05:09;;;;;;;4.20;1.60;;;;;;;;;;107527;1250;61264;-81
2023/07/30 12:07:35;;;;;;;2.10;1.60;;;;;;;;;;107496;1251;61269;-81
2023/07/30 12:10:11;;;;;;;3.70;1.80;;;;;;;;;;107513;1250;61237;-81
2023/07/30 12:12:45;;;;;;;2.80;1.50;;;;;;;;;;107372;1249;61221;-81
2023/07/30 12:15:12;;;;;;;2.30;1.70;;;;;;;;;;107410;1253;61121;-82
2023/07/30 12:17:39;;;;;;;2.70;1.70;;;;;;;;;;107402;1253;61260;-81
2023/07/30 12:20:06;;;;;;;3.80;1.70;;;;;;;;;;107356;1252;61423;-81
2023/07/30 12:22:38;;;;;;;3.60;2.00;;;;;;;;;;107335;1251;62304;-81
2023/07/30 12:25:04;;;;;;;2.50;1.70;;;;;;;;;;107419;1253;61306;-81
2023/07/30 12:27:31;;;;;;;3.20;2.00;;;;;;;;;;107457;1250;60567;-81
2023/07/30 12:29:57;;;;;;;2.80;1.60;;;;;;;;;;107367;1253;61244;-81
2023/07/30 12:32:26;;;;;;;2.20;1.50;;;;;;;;;;107819;1250;61259;-81
2023/07/30 12:34:52;;;;;;;2.40;1.70;;;;;;;;;;107321;1253;61302;-81
2023/07/30 12:37:19;;;;;;;2.70;1.70;;;;;;;;;;107361;1253;61119;-81
2023/07/30 12:39:45;;;;;;;2.80;1.40;;;;;;;;;;107412;1256;61330;-81
2023/07/30 12:42:12;;;;;;;1.90;1.40;;;;;;;;;;107560;1253;61309;-82
2023/07/30 12:44:38;;;;;;;2.60;1.50;;;;;;;;;;107462;1251;61241;-81
2023/07/30 12:47:05;;;;;;;2.20;1.50;;;;;;;;;;107442;1253;61420;-81
2023/07/30 12:49:31;;;;;;;2.30;1.40;;;;;;;;;;107401;1252;61225;-81
2023/07/30 12:51:57;;;;;;;2.30;1.60;;;;;;;;;;107535;1253;61774;-81
2023/07/30 12:54:24;;;;;;;3.30;1.70;;;;;;;;;;107485;1253;61254;-81
2023/07/30 12:56:50;;;;;;;3.80;1.50;;;;;;;;;;107454;1253;61321;-81
2023/07/30 12:59:17;;;;;;;2.40;1.50;;;;;;;;;;107366;1251;61231;-81
2023/07/30 13:01:43;;;;;;;2.30;1.70;;;;;;;;;;108445;1251;61152;-81
2023/07/30 13:04:10;;;;;;;2.50;1.60;;;;;;;;;;107476;1251;61366;-80
2023/07/30 13:06:36;;;;;;;2.50;1.80;;;;;;;;;;107448;1249;61360;-80
2023/07/30 13:09:03;;;;;;;2.90;2.00;;;;;;;;;;107515;1253;61262;-80
2023/07/30 13:11:29;;;;;;;2.20;1.90;;;;;;;;;;107468;1251;59890;-80
2023/07/30 13:13:56;;;;;;;3.30;1.80;;;;;;;;;;107489;1249;61339;-81
2023/07/30 13:16:22;;;;;;;3.00;1.70;;;;;;;;;;107640;1251;61249;-81
2023/07/30 13:18:49;;;;;;;1.80;1.40;;;;;;;;;;107555;1251;61311;-81
2023/07/30 13:21:15;;;;;;;6.50;2.10;;;;;;;;;;107432;1251;59837;-81
2023/07/30 13:23:41;;;;;;;2.30;1.60;;;;;;;;;;107445;1253;61806;-81
2023/07/30 13:26:08;;;;;;;2.60;1.50;;;;;;;;;;107519;1250;61320;-81
2023/07/30 13:28:34;;;;;;;3.80;1.50;;;;;;;;;;107449;1251;61308;-81
2023/07/30 13:31:00;;;;;;;3.90;2.60;;;;;;;;;;107493;1253;61432;-81
2023/07/30 13:33:27;;;;;;;2.80;1.70;;;;;;;;;;107413;1253;61366;-81
2023/07/30 13:35:53;;;;;;;3.80;1.90;;;;;;;;;;107421;1249;59330;-80
2023/07/30 13:38:21;;;;;;;3.40;1.80;;;;;;;;;;107545;1250;61353;-80
2023/07/30 13:40:47;;;;;;;2.70;1.90;;;;;;;;;;107527;1251;61241;-80
2023/07/30 13:43:14;;;;;;;3.60;2.10;;;;;;;;;;107412;1251;61205;-80
2023/07/30 13:45:40;;;;;;;4.50;1.70;;;;;;;;;;107421;1251;61237;-80
2023/07/30 13:48:06;;;;;;;3.30;1.70;;;;;;;;;;107403;1250;61254;-81
2023/07/30 13:50:33;;;;;;;2.20;1.40;;;;;;;;;;107439;1251;61241;-80
2023/07/30 13:52:59;;;;;;;2.60;1.90;;;;;;;;;;107424;1253;61325;-81
2023/07/30 13:55:26;;;;;;;3.00;1.80;;;;;;;;;;107387;1251;61310;-81
2023/07/30 13:57:52;;;;;;;5.20;1.80;;;;;;;;;;107345;1251;61334;-81
2023/07/30 14:00:18;;;;;;;2.50;1.90;;;;;;;;;;107379;1251;61293;-81
2023/07/30 14:02:45;;;;;;;3.70;1.70;;;;;;;;;;107407;1251;61235;-81
2023/07/30 14:05:12;;;;;;;3.40;1.80;;;;;;;;;;107326;1251;61151;-81
2023/07/30 14:07:40;;;;;;;5.90;1.80;;;;;;;;;;107530;1251;59492;-81
2023/07/30 14:10:06;;;;;;;2.40;1.90;;;;;;;;;;107428;1251;61177;-81
2023/07/30 14:12:33;;;;;;;3.80;1.90;;;;;;;;;;107369;1251;59705;-80
2023/07/30 14:14:59;;;;;;;5.10;2.60;;;;;;;;;;107460;1249;61209;-81
2023/07/30 14:17:26;;;;;;;2.80;1.60;;;;;;;;;;107459;1251;61238;-81
2023/07/30 14:19:52;;;;;;;4.10;1.50;;;;;;;;;;107434;1251;61298;-81
2023/07/30 14:22:19;;;;;;;2.70;1.90;;;;;;;;;;107401;1254;61218;-81
2023/07/30 14:24:45;;;;;;;3.40;1.70;;;;;;;;;;107428;1251;61339;-80
2023/07/30 14:27:12;;;;;;;4.30;1.90;;;;;;;;;;107366;1253;61209;-81